sensor_id;sensor_type;location;lat;lon;timestamp;P1;durP1;ratioP1;P2;durP2;ratioP2
68886;SDS011;55925;51.764;6.402;2023-11-21T00:00:26;20.23;;;9.43;;
68886;SDS011;55925;51.764;6.402;2023-11-21T00:02:52;18.52;;;9.05;;
68886;SDS011;55925;51.764;6.402;2023-11-21T00:05:18;17.52;;;8.93;;
68886;SDS011;55925;51.764;6.402;2023-11-21T00:07:44;20.92;;;9.18;;
68886;SDS011;55925;51.764;6.402;2023-11-21T00:10:10;18.13;;;9.15;;
68886;SDS011;55925;51.764;6.402;2023-11-21T00:12:36;18.15;;;9.45;;
68886;SDS011;55925;51.764;6.402;2023-11-21T00:15:03;21.27;;;9.07;;
68886;SDS011;55925;51.764;6.402;2023-11-21T00:17:38;21.13;;;9.32;;
68886;SDS011;55925;51.764;6.402;2023-11-21T00:20:07;24.80;;;11.65;;
68886;SDS011;55925;51.764;6.402;2023-11-21T00:22:36;17.60;;;9.55;;
68886;SDS011;55925;51.764;6.402;2023-11-21T00:25:02;24.20;;;10.73;;
68886;SDS011;55925;51.764;6.402;2023-11-21T00:27:29;21.48;;;10.05;;
68886;SDS011;55925;51.764;6.402;2023-11-21T00:29:55;20.40;;;9.48;;
68886;SDS011;55925;51.764;6.402;2023-11-21T00:32:21;22.25;;;10.18;;
68886;SDS011;55925;51.764;6.402;2023-11-21T00:34:47;20.85;;;10.05;;
68886;SDS011;55925;51.764;6.402;2023-11-21T00:37:13;18.45;;;8.93;;
68886;SDS011;55925;51.764;6.402;2023-11-21T00:39:39;21.77;;;9.98;;
68886;SDS011;55925;51.764;6.402;2023-11-21T00:42:06;20.52;;;9.13;;
68886;SDS011;55925;51.764;6.402;2023-11-21T00:44:33;25.58;;;10.48;;
68886;SDS011;55925;51.764;6.402;2023-11-21T00:46:59;22.77;;;10.45;;
68886;SDS011;55925;51.764;6.402;2023-11-21T00:49:25;23.30;;;9.43;;
68886;SDS011;55925;51.764;6.402;2023-11-21T00:51:53;21.60;;;10.52;;
68886;SDS011;55925;51.764;6.402;2023-11-21T00:54:19;20.75;;;10.48;;
68886;SDS011;55925;51.764;6.402;2023-11-21T00:56:45;21.63;;;10.15;;
68886;SDS011;55925;51.764;6.402;2023-11-21T00:59:12;31.42;;;10.25;;
68886;SDS011;55925;51.764;6.402;2023-11-21T01:01:38;26.60;;;11.52;;
68886;SDS011;55925;51.764;6.402;2023-11-21T01:04:04;29.67;;;10.82;;
68886;SDS011;55925;51.764;6.402;2023-11-21T01:06:31;28.05;;;11.63;;
68886;SDS011;55925;51.764;6.402;2023-11-21T01:08:57;25.35;;;10.65;;
68886;SDS011;55925;51.764;6.402;2023-11-21T01:11:23;24.20;;;10.75;;
68886;SDS011;55925;51.764;6.402;2023-11-21T01:13:49;21.88;;;9.75;;
68886;SDS011;55925;51.764;6.402;2023-11-21T01:16:15;26.30;;;10.60;;
68886;SDS011;55925;51.764;6.402;2023-11-21T01:18:41;25.65;;;10.52;;
68886;SDS011;55925;51.764;6.402;2023-11-21T01:21:07;22.95;;;10.00;;
68886;SDS011;55925;51.764;6.402;2023-11-21T01:23:34;23.23;;;10.93;;
68886;SDS011;55925;51.764;6.402;2023-11-21T01:26:00;24.45;;;11.63;;
68886;SDS011;55925;51.764;6.402;2023-11-21T01:28:26;24.42;;;10.10;;
68886;SDS011;55925;51.764;6.402;2023-11-21T01:30:52;21.60;;;10.57;;
68886;SDS011;55925;51.764;6.402;2023-11-21T01:33:21;21.20;;;9.68;;
68886;SDS011;55925;51.764;6.402;2023-11-21T01:35:49;22.88;;;9.85;;
68886;SDS011;55925;51.764;6.402;2023-11-21T01:38:15;22.17;;;11.00;;
68886;SDS011;55925;51.764;6.402;2023-11-21T01:40:42;25.17;;;11.45;;
68886;SDS011;55925;51.764;6.402;2023-11-21T01:43:08;26.70;;;11.13;;
68886;SDS011;55925;51.764;6.402;2023-11-21T01:45:34;25.67;;;11.85;;
68886;SDS011;55925;51.764;6.402;2023-11-21T01:48:00;21.95;;;10.25;;
68886;SDS011;55925;51.764;6.402;2023-11-21T01:50:27;26.70;;;11.23;;
68886;SDS011;55925;51.764;6.402;2023-11-21T01:52:53;27.83;;;11.88;;
68886;SDS011;55925;51.764;6.402;2023-11-21T01:55:19;25.77;;;11.13;;
68886;SDS011;55925;51.764;6.402;2023-11-21T01:57:46;22.83;;;11.68;;
68886;SDS011;55925;51.764;6.402;2023-11-21T02:00:12;29.95;;;11.60;;
68886;SDS011;55925;51.764;6.402;2023-11-21T02:02:45;28.90;;;12.55;;
68886;SDS011;55925;51.764;6.402;2023-11-21T02:05:11;28.83;;;12.63;;
68886;SDS011;55925;51.764;6.402;2023-11-21T02:07:38;30.48;;;12.38;;
68886;SDS011;55925;51.764;6.402;2023-11-21T02:10:05;34.42;;;13.70;;
68886;SDS011;55925;51.764;6.402;2023-11-21T02:12:31;32.78;;;12.85;;
68886;SDS011;55925;51.764;6.402;2023-11-21T02:14:57;32.30;;;11.77;;
68886;SDS011;55925;51.764;6.402;2023-11-21T02:17:23;29.17;;;12.52;;
68886;SDS011;55925;51.764;6.402;2023-11-21T02:19:49;33.90;;;13.52;;
68886;SDS011;55925;51.764;6.402;2023-11-21T02:22:16;32.53;;;12.77;;
68886;SDS011;55925;51.764;6.402;2023-11-21T02:24:42;39.13;;;13.30;;
68886;SDS011;55925;51.764;6.402;2023-11-21T02:27:09;36.60;;;14.98;;
68886;SDS011;55925;51.764;6.402;2023-11-21T02:29:35;37.95;;;14.20;;
68886;SDS011;55925;51.764;6.402;2023-11-21T02:32:01;35.80;;;13.32;;
68886;SDS011;55925;51.764;6.402;2023-11-21T02:34:27;31.70;;;13.27;;
68886;SDS011;55925;51.764;6.402;2023-11-21T02:36:53;34.20;;;14.20;;
68886;SDS011;55925;51.764;6.402;2023-11-21T02:39:19;29.30;;;13.02;;
68886;SDS011;55925;51.764;6.402;2023-11-21T02:41:47;32.53;;;13.90;;
68886;SDS011;55925;51.764;6.402;2023-11-21T02:44:14;30.25;;;12.68;;
68886;SDS011;55925;51.764;6.402;2023-11-21T02:46:40;33.05;;;12.68;;
68886;SDS011;55925;51.764;6.402;2023-11-21T02:49:06;40.30;;;14.05;;
68886;SDS011;55925;51.764;6.402;2023-11-21T02:51:32;32.80;;;13.63;;
68886;SDS011;55925;51.764;6.402;2023-11-21T02:53:58;31.70;;;13.23;;
68886;SDS011;55925;51.764;6.402;2023-11-21T02:56:26;37.67;;;13.05;;
68886;SDS011;55925;51.764;6.402;2023-11-21T02:58:52;41.58;;;14.48;;
68886;SDS011;55925;51.764;6.402;2023-11-21T03:01:18;33.83;;;13.73;;
68886;SDS011;55925;51.764;6.402;2023-11-21T03:03:44;39.42;;;14.18;;
68886;SDS011;55925;51.764;6.402;2023-11-21T03:06:12;33.97;;;13.23;;
68886;SDS011;55925;51.764;6.402;2023-11-21T03:08:39;41.65;;;15.32;;
68886;SDS011;55925;51.764;6.402;2023-11-21T03:11:06;41.63;;;15.35;;
68886;SDS011;55925;51.764;6.402;2023-11-21T03:13:33;50.22;;;16.92;;
68886;SDS011;55925;51.764;6.402;2023-11-21T03:15:59;35.67;;;14.43;;
68886;SDS011;55925;51.764;6.402;2023-11-21T03:18:25;34.80;;;13.27;;
68886;SDS011;55925;51.764;6.402;2023-11-21T03:20:54;43.13;;;15.35;;
68886;SDS011;55925;51.764;6.402;2023-11-21T03:23:20;49.75;;;16.02;;
68886;SDS011;55925;51.764;6.402;2023-11-21T03:25:46;39.42;;;14.20;;
68886;SDS011;55925;51.764;6.402;2023-11-21T03:28:12;41.63;;;13.88;;
68886;SDS011;55925;51.764;6.402;2023-11-21T03:30:38;41.50;;;13.77;;
68886;SDS011;55925;51.764;6.402;2023-11-21T03:33:04;41.08;;;14.75;;
68886;SDS011;55925;51.764;6.402;2023-11-21T03:35:30;44.00;;;15.40;;
68886;SDS011;55925;51.764;6.402;2023-11-21T03:37:56;41.42;;;14.15;;
68886;SDS011;55925;51.764;6.402;2023-11-21T03:40:22;41.15;;;15.80;;
68886;SDS011;55925;51.764;6.402;2023-11-21T03:42:48;40.00;;;15.38;;
68886;SDS011;55925;51.764;6.402;2023-11-21T03:45:14;37.90;;;13.75;;
68886;SDS011;55925;51.764;6.402;2023-11-21T03:47:43;43.63;;;14.43;;
68886;SDS011;55925;51.764;6.402;2023-11-21T03:50:09;44.22;;;13.88;;
68886;SDS011;55925;51.764;6.402;2023-11-21T03:52:37;62.47;;;18.27;;
68886;SDS011;55925;51.764;6.402;2023-11-21T03:55:03;44.53;;;15.10;;
68886;SDS011;55925;51.764;6.402;2023-11-21T03:57:29;43.80;;;16.13;;
68886;SDS011;55925;51.764;6.402;2023-11-21T03:59:55;44.58;;;15.82;;
68886;SDS011;55925;51.764;6.402;2023-11-21T04:02:21;42.83;;;15.93;;
68886;SDS011;55925;51.764;6.402;2023-11-21T04:04:47;44.80;;;15.10;;
68886;SDS011;55925;51.764;6.402;2023-11-21T04:07:13;52.67;;;16.02;;
68886;SDS011;55925;51.764;6.402;2023-11-21T04:09:40;48.67;;;16.83;;
68886;SDS011;55925;51.764;6.402;2023-11-21T04:12:06;44.63;;;15.60;;
68886;SDS011;55925;51.764;6.402;2023-11-21T04:14:34;49.40;;;15.35;;
68886;SDS011;55925;51.764;6.402;2023-11-21T04:17:00;43.53;;;15.77;;
68886;SDS011;55925;51.764;6.402;2023-11-21T04:19:26;55.75;;;17.38;;
68886;SDS011;55925;51.764;6.402;2023-11-21T04:21:52;46.42;;;15.55;;
68886;SDS011;55925;51.764;6.402;2023-11-21T04:24:18;48.15;;;16.15;;
68886;SDS011;55925;51.764;6.402;2023-11-21T04:26:44;44.20;;;15.07;;
68886;SDS011;55925;51.764;6.402;2023-11-21T04:29:10;51.38;;;19.02;;
68886;SDS011;55925;51.764;6.402;2023-11-21T04:31:36;49.53;;;15.95;;
68886;SDS011;55925;51.764;6.402;2023-11-21T04:34:02;43.30;;;15.32;;
68886;SDS011;55925;51.764;6.402;2023-11-21T04:36:31;50.17;;;16.85;;
68886;SDS011;55925;51.764;6.402;2023-11-21T04:38:57;50.63;;;17.40;;
68886;SDS011;55925;51.764;6.402;2023-11-21T04:41:23;41.67;;;15.55;;
68886;SDS011;55925;51.764;6.402;2023-11-21T04:43:49;49.35;;;18.23;;
68886;SDS011;55925;51.764;6.402;2023-11-21T04:46:15;50.35;;;17.30;;
68886;SDS011;55925;51.764;6.402;2023-11-21T04:48:41;55.22;;;17.58;;
68886;SDS011;55925;51.764;6.402;2023-11-21T04:51:07;64.03;;;18.58;;
68886;SDS011;55925;51.764;6.402;2023-11-21T04:53:33;55.33;;;18.48;;
68886;SDS011;55925;51.764;6.402;2023-11-21T04:56:00;68.60;;;18.65;;
68886;SDS011;55925;51.764;6.402;2023-11-21T04:58:26;84.43;;;22.48;;
68886;SDS011;55925;51.764;6.402;2023-11-21T05:00:52;56.55;;;18.70;;
68886;SDS011;55925;51.764;6.402;2023-11-21T05:03:18;61.65;;;18.10;;
68886;SDS011;55925;51.764;6.402;2023-11-21T05:05:44;51.65;;;19.05;;
68886;SDS011;55925;51.764;6.402;2023-11-21T05:08:10;49.17;;;15.20;;
68886;SDS011;55925;51.764;6.402;2023-11-21T05:10:35;44.47;;;15.00;;
68886;SDS011;55925;51.764;6.402;2023-11-21T05:13:04;47.35;;;16.83;;
68886;SDS011;55925;51.764;6.402;2023-11-21T05:15:34;44.60;;;15.30;;
68886;SDS011;55925;51.764;6.402;2023-11-21T05:18:00;43.95;;;17.08;;
68886;SDS011;55925;51.764;6.402;2023-11-21T05:20:26;47.95;;;17.38;;
68886;SDS011;55925;51.764;6.402;2023-11-21T05:22:52;37.03;;;15.38;;
68886;SDS011;55925;51.764;6.402;2023-11-21T05:25:18;37.50;;;14.80;;
68886;SDS011;55925;51.764;6.402;2023-11-21T05:27:47;46.72;;;15.60;;
68886;SDS011;55925;51.764;6.402;2023-11-21T05:30:14;39.00;;;15.30;;
68886;SDS011;55925;51.764;6.402;2023-11-21T05:32:40;49.33;;;15.27;;
68886;SDS011;55925;51.764;6.402;2023-11-21T05:35:11;48.28;;;16.83;;
68886;SDS011;55925;51.764;6.402;2023-11-21T05:37:40;47.15;;;16.23;;
68886;SDS011;55925;51.764;6.402;2023-11-21T05:40:07;40.85;;;14.45;;
68886;SDS011;55925;51.764;6.402;2023-11-21T05:42:34;39.90;;;16.20;;
68886;SDS011;55925;51.764;6.402;2023-11-21T05:45:00;43.00;;;15.13;;
68886;SDS011;55925;51.764;6.402;2023-11-21T05:47:40;43.22;;;15.25;;
68886;SDS011;55925;51.764;6.402;2023-11-21T05:50:06;39.55;;;15.50;;
68886;SDS011;55925;51.764;6.402;2023-11-21T05:52:37;38.58;;;14.25;;
68886;SDS011;55925;51.764;6.402;2023-11-21T05:55:04;39.78;;;15.27;;
68886;SDS011;55925;51.764;6.402;2023-11-21T05:57:36;44.20;;;17.05;;
68886;SDS011;55925;51.764;6.402;2023-11-21T06:00:05;42.72;;;13.80;;
68886;SDS011;55925;51.764;6.402;2023-11-21T06:02:45;43.90;;;14.18;;
68886;SDS011;55925;51.764;6.402;2023-11-21T06:05:12;43.00;;;15.20;;
68886;SDS011;55925;51.764;6.402;2023-11-21T06:07:38;51.65;;;15.50;;
68886;SDS011;55925;51.764;6.402;2023-11-21T06:10:05;49.10;;;15.63;;
68886;SDS011;55925;51.764;6.402;2023-11-21T06:12:34;57.83;;;17.42;;
68886;SDS011;55925;51.764;6.402;2023-11-21T06:15:03;44.95;;;15.23;;
68886;SDS011;55925;51.764;6.402;2023-11-21T06:17:37;47.47;;;16.20;;
68886;SDS011;55925;51.764;6.402;2023-11-21T06:20:04;38.95;;;15.27;;
68886;SDS011;55925;51.764;6.402;2023-11-21T06:22:37;33.92;;;14.77;;
68886;SDS011;55925;51.764;6.402;2023-11-21T06:25:04;43.35;;;15.65;;
68886;SDS011;55925;51.764;6.402;2023-11-21T06:27:40;36.80;;;14.90;;
68886;SDS011;55925;51.764;6.402;2023-11-21T06:30:06;41.00;;;16.23;;
68886;SDS011;55925;51.764;6.402;2023-11-21T06:32:34;43.15;;;15.63;;
68886;SDS011;55925;51.764;6.402;2023-11-21T06:35:01;42.63;;;16.60;;
68886;SDS011;55925;51.764;6.402;2023-11-21T06:37:27;49.65;;;16.80;;
68886;SDS011;55925;51.764;6.402;2023-11-21T06:39:53;53.38;;;19.23;;
68886;SDS011;55925;51.764;6.402;2023-11-21T06:42:19;44.20;;;17.33;;
68886;SDS011;55925;51.764;6.402;2023-11-21T06:44:47;53.63;;;18.48;;
68886;SDS011;55925;51.764;6.402;2023-11-21T06:47:13;42.30;;;14.85;;
68886;SDS011;55925;51.764;6.402;2023-11-21T06:49:41;45.28;;;15.40;;
68886;SDS011;55925;51.764;6.402;2023-11-21T06:52:07;43.42;;;15.50;;
68886;SDS011;55925;51.764;6.402;2023-11-21T06:54:33;48.63;;;16.38;;
68886;SDS011;55925;51.764;6.402;2023-11-21T06:56:59;38.20;;;13.80;;
68886;SDS011;55925;51.764;6.402;2023-11-21T06:59:25;44.38;;;15.95;;
68886;SDS011;55925;51.764;6.402;2023-11-21T07:01:51;39.70;;;15.60;;
68886;SDS011;55925;51.764;6.402;2023-11-21T07:04:17;48.55;;;16.98;;
68886;SDS011;55925;51.764;6.402;2023-11-21T07:06:43;37.17;;;14.90;;
68886;SDS011;55925;51.764;6.402;2023-11-21T07:09:09;34.10;;;14.57;;
68886;SDS011;55925;51.764;6.402;2023-11-21T07:11:36;38.42;;;15.38;;
68886;SDS011;55925;51.764;6.402;2023-11-21T07:14:03;34.83;;;13.75;;
68886;SDS011;55925;51.764;6.402;2023-11-21T07:16:35;44.75;;;14.07;;
68886;SDS011;55925;51.764;6.402;2023-11-21T07:19:03;43.22;;;14.95;;
68886;SDS011;55925;51.764;6.402;2023-11-21T07:21:32;34.22;;;13.65;;
68886;SDS011;55925;51.764;6.402;2023-11-21T07:23:59;36.58;;;14.80;;
68886;SDS011;55925;51.764;6.402;2023-11-21T07:26:26;34.80;;;14.68;;
68886;SDS011;55925;51.764;6.402;2023-11-21T07:28:52;34.58;;;13.80;;
68886;SDS011;55925;51.764;6.402;2023-11-21T07:31:18;40.63;;;14.02;;
68886;SDS011;55925;51.764;6.402;2023-11-21T07:33:45;40.80;;;15.20;;
68886;SDS011;55925;51.764;6.402;2023-11-21T07:36:14;33.67;;;14.02;;
68886;SDS011;55925;51.764;6.402;2023-11-21T07:38:41;38.67;;;15.73;;
68886;SDS011;55925;51.764;6.402;2023-11-21T07:41:07;37.47;;;13.80;;
68886;SDS011;55925;51.764;6.402;2023-11-21T07:43:35;33.83;;;13.35;;
68886;SDS011;55925;51.764;6.402;2023-11-21T07:46:01;37.22;;;13.27;;
68886;SDS011;55925;51.764;6.402;2023-11-21T07:48:29;31.33;;;13.02;;
68886;SDS011;55925;51.764;6.402;2023-11-21T07:50:55;40.38;;;14.45;;
68886;SDS011;55925;51.764;6.402;2023-11-21T07:53:21;32.10;;;13.18;;
68886;SDS011;55925;51.764;6.402;2023-11-21T07:55:47;38.05;;;15.00;;
68886;SDS011;55925;51.764;6.402;2023-11-21T07:58:13;47.30;;;16.27;;
68886;SDS011;55925;51.764;6.402;2023-11-21T08:00:39;38.83;;;15.23;;
68886;SDS011;55925;51.764;6.402;2023-11-21T08:03:05;40.38;;;15.07;;
68886;SDS011;55925;51.764;6.402;2023-11-21T08:05:31;41.00;;;15.32;;
68886;SDS011;55925;51.764;6.402;2023-11-21T08:07:57;41.67;;;14.60;;
68886;SDS011;55925;51.764;6.402;2023-11-21T08:10:23;38.72;;;14.27;;
68886;SDS011;55925;51.764;6.402;2023-11-21T08:12:50;36.45;;;13.85;;
68886;SDS011;55925;51.764;6.402;2023-11-21T08:15:16;34.60;;;13.93;;
68886;SDS011;55925;51.764;6.402;2023-11-21T08:17:42;36.50;;;13.70;;
68886;SDS011;55925;51.764;6.402;2023-11-21T08:20:08;38.58;;;14.45;;
68886;SDS011;55925;51.764;6.402;2023-11-21T08:22:36;36.15;;;12.57;;
68886;SDS011;55925;51.764;6.402;2023-11-21T08:25:02;29.85;;;13.32;;
68886;SDS011;55925;51.764;6.402;2023-11-21T08:27:32;37.10;;;14.90;;
68886;SDS011;55925;51.764;6.402;2023-11-21T08:29:59;30.13;;;12.73;;
68886;SDS011;55925;51.764;6.402;2023-11-21T08:32:25;33.22;;;11.88;;
68886;SDS011;55925;51.764;6.402;2023-11-21T08:34:51;31.45;;;12.65;;
68886;SDS011;55925;51.764;6.402;2023-11-21T08:37:17;32.97;;;13.40;;
68886;SDS011;55925;51.764;6.402;2023-11-21T08:39:44;31.58;;;13.27;;
68886;SDS011;55925;51.764;6.402;2023-11-21T08:42:10;29.55;;;13.23;;
68886;SDS011;55925;51.764;6.402;2023-11-21T08:44:36;31.13;;;13.55;;
68886;SDS011;55925;51.764;6.402;2023-11-21T08:47:03;28.48;;;12.15;;
68886;SDS011;55925;51.764;6.402;2023-11-21T08:49:30;28.92;;;12.50;;
68886;SDS011;55925;51.764;6.402;2023-11-21T08:51:56;36.22;;;13.77;;
68886;SDS011;55925;51.764;6.402;2023-11-21T08:54:24;30.00;;;13.02;;
68886;SDS011;55925;51.764;6.402;2023-11-21T08:56:51;31.40;;;13.32;;
68886;SDS011;55925;51.764;6.402;2023-11-21T08:59:18;33.28;;;13.25;;
68886;SDS011;55925;51.764;6.402;2023-11-21T09:01:45;29.95;;;11.18;;
68886;SDS011;55925;51.764;6.402;2023-11-21T09:04:11;36.38;;;13.85;;
68886;SDS011;55925;51.764;6.402;2023-11-21T09:06:38;32.83;;;13.10;;
68886;SDS011;55925;51.764;6.402;2023-11-21T09:09:04;34.33;;;13.55;;
68886;SDS011;55925;51.764;6.402;2023-11-21T09:11:31;27.95;;;11.93;;
68886;SDS011;55925;51.764;6.402;2023-11-21T09:13:59;26.92;;;11.90;;
68886;SDS011;55925;51.764;6.402;2023-11-21T09:16:25;28.15;;;12.35;;
68886;SDS011;55925;51.764;6.402;2023-11-21T09:18:51;31.23;;;12.60;;
68886;SDS011;55925;51.764;6.402;2023-11-21T09:21:17;27.60;;;11.82;;
68886;SDS011;55925;51.764;6.402;2023-11-21T09:23:46;24.65;;;10.75;;
68886;SDS011;55925;51.764;6.402;2023-11-21T09:26:13;28.33;;;12.02;;
68886;SDS011;55925;51.764;6.402;2023-11-21T09:28:41;31.15;;;11.88;;
68886;SDS011;55925;51.764;6.402;2023-11-21T09:31:11;25.92;;;11.40;;
68886;SDS011;55925;51.764;6.402;2023-11-21T09:33:37;29.35;;;10.90;;
68886;SDS011;55925;51.764;6.402;2023-11-21T09:36:04;30.25;;;12.50;;
68886;SDS011;55925;51.764;6.402;2023-11-21T09:38:30;24.73;;;11.30;;
68886;SDS011;55925;51.764;6.402;2023-11-21T09:40:56;24.23;;;10.63;;
68886;SDS011;55925;51.764;6.402;2023-11-21T09:43:23;28.20;;;11.15;;
68886;SDS011;55925;51.764;6.402;2023-11-21T09:45:56;28.30;;;10.88;;
68886;SDS011;55925;51.764;6.402;2023-11-21T09:48:25;26.30;;;11.05;;
68886;SDS011;55925;51.764;6.402;2023-11-21T09:50:51;26.00;;;11.02;;
68886;SDS011;55925;51.764;6.402;2023-11-21T09:53:19;29.52;;;11.93;;
68886;SDS011;55925;51.764;6.402;2023-11-21T09:55:46;28.52;;;12.02;;
68886;SDS011;55925;51.764;6.402;2023-11-21T09:58:13;28.00;;;11.13;;
68886;SDS011;55925;51.764;6.402;2023-11-21T10:00:40;26.08;;;11.48;;
68886;SDS011;55925;51.764;6.402;2023-11-21T10:03:06;24.48;;;10.70;;
68886;SDS011;55925;51.764;6.402;2023-11-21T10:05:33;26.00;;;11.00;;
68886;SDS011;55925;51.764;6.402;2023-11-21T10:07:59;24.88;;;11.45;;
68886;SDS011;55925;51.764;6.402;2023-11-21T10:10:26;24.38;;;11.00;;
68886;SDS011;55925;51.764;6.402;2023-11-21T10:12:56;26.10;;;10.18;;
68886;SDS011;55925;51.764;6.402;2023-11-21T10:15:23;23.73;;;10.45;;
68886;SDS011;55925;51.764;6.402;2023-11-21T10:17:53;24.98;;;11.23;;
68886;SDS011;55925;51.764;6.402;2023-11-21T10:20:19;23.35;;;10.80;;
68886;SDS011;55925;51.764;6.402;2023-11-21T10:22:45;24.35;;;11.02;;
68886;SDS011;55925;51.764;6.402;2023-11-21T10:25:12;26.75;;;11.02;;
68886;SDS011;55925;51.764;6.402;2023-11-21T10:27:41;21.77;;;9.75;;
68886;SDS011;55925;51.764;6.402;2023-11-21T10:30:08;26.85;;;10.73;;
68886;SDS011;55925;51.764;6.402;2023-11-21T10:32:38;26.35;;;11.07;;
68886;SDS011;55925;51.764;6.402;2023-11-21T10:35:05;26.75;;;11.45;;
68886;SDS011;55925;51.764;6.402;2023-11-21T10:37:35;23.73;;;10.60;;
68886;SDS011;55925;51.764;6.402;2023-11-21T10:40:04;25.23;;;13.23;;
68886;SDS011;55925;51.764;6.402;2023-11-21T10:42:31;27.42;;;13.20;;
68886;SDS011;55925;51.764;6.402;2023-11-21T10:44:57;25.35;;;11.77;;
68886;SDS011;55925;51.764;6.402;2023-11-21T10:47:23;29.05;;;13.38;;
68886;SDS011;55925;51.764;6.402;2023-11-21T10:49:49;24.10;;;10.55;;
68886;SDS011;55925;51.764;6.402;2023-11-21T10:52:15;24.55;;;12.00;;
68886;SDS011;55925;51.764;6.402;2023-11-21T10:54:44;26.90;;;12.77;;
68886;SDS011;55925;51.764;6.402;2023-11-21T10:57:10;29.35;;;13.00;;
68886;SDS011;55925;51.764;6.402;2023-11-21T10:59:40;29.33;;;12.52;;
68886;SDS011;55925;51.764;6.402;2023-11-21T11:02:18;34.20;;;14.13;;
68886;SDS011;55925;51.764;6.402;2023-11-21T11:04:47;30.38;;;12.50;;
68886;SDS011;55925;51.764;6.402;2023-11-21T11:07:14;27.48;;;13.32;;
68886;SDS011;55925;51.764;6.402;2023-11-21T11:09:41;29.13;;;13.20;;
68886;SDS011;55925;51.764;6.402;2023-11-21T11:12:09;28.40;;;13.05;;
68886;SDS011;55925;51.764;6.402;2023-11-21T11:14:35;26.85;;;12.05;;
68886;SDS011;55925;51.764;6.402;2023-11-21T11:17:02;30.52;;;12.68;;
68886;SDS011;55925;51.764;6.402;2023-11-21T11:19:30;30.80;;;12.45;;
68886;SDS011;55925;51.764;6.402;2023-11-21T11:24:55;31.30;;;12.35;;
68886;SDS011;55925;51.764;6.402;2023-11-21T11:30:41;30.48;;;13.13;;
68886;SDS011;55925;51.764;6.402;2023-11-21T11:37:59;37.78;;;15.73;;
68886;SDS011;55925;51.764;6.402;2023-11-21T11:40:33;34.22;;;13.27;;
68886;SDS011;55925;51.764;6.402;2023-11-21T11:43:05;30.50;;;13.05;;
68886;SDS011;55925;51.764;6.402;2023-11-21T11:45:33;27.13;;;11.23;;
68886;SDS011;55925;51.764;6.402;2023-11-21T11:48:00;28.17;;;12.27;;
68886;SDS011;55925;51.764;6.402;2023-11-21T11:50:27;33.72;;;12.30;;
68886;SDS011;55925;51.764;6.402;2023-11-21T11:52:53;28.65;;;11.38;;
68886;SDS011;55925;51.764;6.402;2023-11-21T11:55:23;26.60;;;12.30;;
68886;SDS011;55925;51.764;6.402;2023-11-21T11:57:49;30.98;;;11.98;;
68886;SDS011;55925;51.764;6.402;2023-11-21T12:00:17;30.17;;;11.90;;
68886;SDS011;55925;51.764;6.402;2023-11-21T12:02:46;27.38;;;11.98;;
68886;SDS011;55925;51.764;6.402;2023-11-21T12:05:13;24.38;;;10.90;;
68886;SDS011;55925;51.764;6.402;2023-11-21T12:10:15;30.38;;;11.50;;
68886;SDS011;55925;51.764;6.402;2023-11-21T12:12:43;25.40;;;10.75;;
68886;SDS011;55925;51.764;6.402;2023-11-21T12:15:10;28.95;;;12.32;;
68886;SDS011;55925;51.764;6.402;2023-11-21T12:17:37;24.88;;;12.13;;
68886;SDS011;55925;51.764;6.402;2023-11-21T12:20:04;29.15;;;11.02;;
68886;SDS011;55925;51.764;6.402;2023-11-21T12:22:31;27.48;;;12.10;;
68886;SDS011;55925;51.764;6.402;2023-11-21T12:24:57;27.88;;;11.93;;
68886;SDS011;55925;51.764;6.402;2023-11-21T12:27:23;32.72;;;13.57;;
68886;SDS011;55925;51.764;6.402;2023-11-21T12:29:49;32.78;;;11.90;;
68886;SDS011;55925;51.764;6.402;2023-11-21T12:32:15;32.40;;;13.38;;
68886;SDS011;55925;51.764;6.402;2023-11-21T12:34:43;29.83;;;11.63;;
68886;SDS011;55925;51.764;6.402;2023-11-21T12:37:09;31.92;;;12.65;;
68886;SDS011;55925;51.764;6.402;2023-11-21T12:39:35;38.05;;;14.25;;
68886;SDS011;55925;51.764;6.402;2023-11-21T12:42:01;32.90;;;11.75;;
68886;SDS011;55925;51.764;6.402;2023-11-21T12:44:27;31.27;;;11.63;;
68886;SDS011;55925;51.764;6.402;2023-11-21T12:46:54;37.25;;;13.52;;
68886;SDS011;55925;51.764;6.402;2023-11-21T12:49:20;32.83;;;11.90;;
68886;SDS011;55925;51.764;6.402;2023-11-21T12:51:47;27.77;;;12.02;;
68886;SDS011;55925;51.764;6.402;2023-11-21T12:54:13;31.42;;;10.68;;
68886;SDS011;55925;51.764;6.402;2023-11-21T12:56:39;28.55;;;11.02;;
68886;SDS011;55925;51.764;6.402;2023-11-21T12:59:05;32.15;;;11.88;;
68886;SDS011;55925;51.764;6.402;2023-11-21T13:01:31;29.70;;;10.57;;
68886;SDS011;55925;51.764;6.402;2023-11-21T13:03:57;27.63;;;9.60;;
68886;SDS011;55925;51.764;6.402;2023-11-21T13:06:23;25.77;;;10.18;;
68886;SDS011;55925;51.764;6.402;2023-11-21T13:08:51;31.35;;;11.50;;
68886;SDS011;55925;51.764;6.402;2023-11-21T13:11:17;28.88;;;11.45;;
68886;SDS011;55925;51.764;6.402;2023-11-21T13:13:43;28.50;;;11.82;;
68886;SDS011;55925;51.764;6.402;2023-11-21T13:16:10;30.17;;;11.27;;
68886;SDS011;55925;51.764;6.402;2023-11-21T13:18:36;26.60;;;11.32;;
68886;SDS011;55925;51.764;6.402;2023-11-21T13:21:07;23.08;;;10.80;;
68886;SDS011;55925;51.764;6.402;2023-11-21T13:23:38;28.92;;;10.98;;
68886;SDS011;55925;51.764;6.402;2023-11-21T13:26:06;24.85;;;10.10;;
68886;SDS011;55925;51.764;6.402;2023-11-21T13:28:33;19.15;;;9.05;;
68886;SDS011;55925;51.764;6.402;2023-11-21T13:31:00;21.35;;;9.35;;
68886;SDS011;55925;51.764;6.402;2023-11-21T13:33:35;21.05;;;9.50;;
68886;SDS011;55925;51.764;6.402;2023-11-21T13:36:03;23.67;;;10.65;;
68886;SDS011;55925;51.764;6.402;2023-11-21T13:38:32;24.15;;;10.98;;
68886;SDS011;55925;51.764;6.402;2023-11-21T13:41:00;20.90;;;8.80;;
68886;SDS011;55925;51.764;6.402;2023-11-21T13:43:26;22.17;;;10.85;;
68886;SDS011;55925;51.764;6.402;2023-11-21T13:45:54;17.65;;;7.57;;
68886;SDS011;55925;51.764;6.402;2023-11-21T13:48:29;21.85;;;10.23;;
68886;SDS011;55925;51.764;6.402;2023-11-21T13:51:05;18.48;;;7.43;;
68886;SDS011;55925;51.764;6.402;2023-11-21T13:53:45;23.27;;;8.77;;
68886;SDS011;55925;51.764;6.402;2023-11-21T13:56:17;18.38;;;7.70;;
68886;SDS011;55925;51.764;6.402;2023-11-21T13:58:50;17.45;;;8.63;;
68886;SDS011;55925;51.764;6.402;2023-11-21T14:01:17;19.65;;;7.60;;
68886;SDS011;55925;51.764;6.402;2023-11-21T14:04:04;20.98;;;8.27;;
68886;SDS011;55925;51.764;6.402;2023-11-21T14:06:42;20.77;;;8.20;;
68886;SDS011;55925;51.764;6.402;2023-11-21T14:09:16;22.60;;;9.02;;
68886;SDS011;55925;51.764;6.402;2023-11-21T14:12:06;20.90;;;9.00;;
68886;SDS011;55925;51.764;6.402;2023-11-21T14:14:32;21.63;;;8.85;;
68886;SDS011;55925;51.764;6.402;2023-11-21T14:16:59;22.63;;;9.15;;
68886;SDS011;55925;51.764;6.402;2023-11-21T14:19:25;18.42;;;8.30;;
68886;SDS011;55925;51.764;6.402;2023-11-21T14:21:56;18.85;;;8.00;;
68886;SDS011;55925;51.764;6.402;2023-11-21T14:24:22;18.75;;;7.85;;
68886;SDS011;55925;51.764;6.402;2023-11-21T14:26:49;22.30;;;9.43;;
68886;SDS011;55925;51.764;6.402;2023-11-21T14:29:16;18.95;;;8.15;;
68886;SDS011;55925;51.764;6.402;2023-11-21T14:31:45;19.85;;;8.88;;
68886;SDS011;55925;51.764;6.402;2023-11-21T14:34:11;19.45;;;7.93;;
68886;SDS011;55925;51.764;6.402;2023-11-21T14:36:38;20.27;;;8.18;;